sensor_id;sensor_type;location;lat;lon;timestamp;P1;durP1;ratioP1;P2;durP2;ratioP2
20480;SDS011;10399;50.754;3.366;2024-01-16T00:02:16;15.32;;;7.28;;
20480;SDS011;10399;50.754;3.366;2024-01-16T00:04:45;14.70;;;6.32;;
20480;SDS011;10399;50.754;3.366;2024-01-16T00:07:12;16.63;;;6.00;;
20480;SDS011;10399;50.754;3.366;2024-01-16T00:09:40;18.42;;;7.05;;
20480;SDS011;10399;50.754;3.366;2024-01-16T00:12:07;22.40;;;8.05;;
20480;SDS011;10399;50.754;3.366;2024-01-16T00:14:37;16.08;;;6.22;;
20480;SDS011;10399;50.754;3.366;2024-01-16T00:17:05;21.50;;;8.07;;
20480;SDS011;10399;50.754;3.366;2024-01-16T00:19:32;15.55;;;5.20;;
20480;SDS011;10399;50.754;3.366;2024-01-16T00:22:00;20.73;;;5.88;;
20480;SDS011;10399;50.754;3.366;2024-01-16T00:24:29;18.73;;;6.75;;
20480;SDS011;10399;50.754;3.366;2024-01-16T00:26:56;18.98;;;6.55;;
20480;SDS011;10399;50.754;3.366;2024-01-16T00:29:23;17.10;;;6.63;;
20480;SDS011;10399;50.754;3.366;2024-01-16T00:31:50;10.90;;;5.53;;
20480;SDS011;10399;50.754;3.366;2024-01-16T00:34:17;9.23;;;4.68;;
20480;SDS011;10399;50.754;3.366;2024-01-16T00:36:44;13.30;;;5.65;;
20480;SDS011;10399;50.754;3.366;2024-01-16T00:39:11;17.08;;;5.38;;
20480;SDS011;10399;50.754;3.366;2024-01-16T00:41:39;12.27;;;4.57;;
20480;SDS011;10399;50.754;3.366;2024-01-16T00:44:06;10.80;;;5.03;;
20480;SDS011;10399;50.754;3.366;2024-01-16T00:46:34;17.63;;;4.93;;
20480;SDS011;10399;50.754;3.366;2024-01-16T00:49:01;11.52;;;4.55;;
20480;SDS011;10399;50.754;3.366;2024-01-16T00:51:28;15.25;;;6.13;;
20480;SDS011;10399;50.754;3.366;2024-01-16T00:53:55;15.23;;;5.53;;
20480;SDS011;10399;50.754;3.366;2024-01-16T00:56:22;15.93;;;5.65;;
20480;SDS011;10399;50.754;3.366;2024-01-16T00:58:49;13.55;;;4.70;;
20480;SDS011;10399;50.754;3.366;2024-01-16T01:01:16;14.45;;;4.95;;
20480;SDS011;10399;50.754;3.366;2024-01-16T01:03:43;11.05;;;4.55;;
20480;SDS011;10399;50.754;3.366;2024-01-16T01:06:10;12.48;;;5.38;;
20480;SDS011;10399;50.754;3.366;2024-01-16T01:08:38;12.07;;;4.93;;
20480;SDS011;10399;50.754;3.366;2024-01-16T01:11:05;16.70;;;4.25;;
20480;SDS011;10399;50.754;3.366;2024-01-16T01:13:32;11.52;;;4.15;;
20480;SDS011;10399;50.754;3.366;2024-01-16T01:15:59;11.75;;;4.07;;
20480;SDS011;10399;50.754;3.366;2024-01-16T01:18:26;10.70;;;4.40;;
20480;SDS011;10399;50.754;3.366;2024-01-16T01:20:53;7.55;;;4.22;;
20480;SDS011;10399;50.754;3.366;2024-01-16T01:23:21;12.70;;;4.25;;
20480;SDS011;10399;50.754;3.366;2024-01-16T01:25:48;14.27;;;4.60;;
20480;SDS011;10399;50.754;3.366;2024-01-16T01:28:15;16.55;;;4.22;;
20480;SDS011;10399;50.754;3.366;2024-01-16T01:30:42;8.45;;;3.90;;
20480;SDS011;10399;50.754;3.366;2024-01-16T01:33:09;9.25;;;3.95;;
20480;SDS011;10399;50.754;3.366;2024-01-16T01:35:40;9.80;;;4.53;;
20480;SDS011;10399;50.754;3.366;2024-01-16T01:38:07;11.73;;;4.30;;
20480;SDS011;10399;50.754;3.366;2024-01-16T01:40:34;8.45;;;4.05;;
20480;SDS011;10399;50.754;3.366;2024-01-16T01:43:20;18.30;;;4.43;;
20480;SDS011;10399;50.754;3.366;2024-01-16T01:48:35;12.23;;;4.65;;
20480;SDS011;10399;50.754;3.366;2024-01-16T01:51:05;10.40;;;3.50;;
20480;SDS011;10399;50.754;3.366;2024-01-16T01:53:32;9.98;;;4.10;;
20480;SDS011;10399;50.754;3.366;2024-01-16T01:56:01;11.05;;;3.83;;
20480;SDS011;10399;50.754;3.366;2024-01-16T01:58:33;12.75;;;4.22;;
20480;SDS011;10399;50.754;3.366;2024-01-16T02:01:01;17.65;;;4.32;;
20480;SDS011;10399;50.754;3.366;2024-01-16T02:03:30;11.20;;;3.42;;
20480;SDS011;10399;50.754;3.366;2024-01-16T02:06:04;10.82;;;3.78;;
20480;SDS011;10399;50.754;3.366;2024-01-16T02:08:31;9.17;;;3.93;;
20480;SDS011;10399;50.754;3.366;2024-01-16T02:10:59;6.60;;;3.72;;
20480;SDS011;10399;50.754;3.366;2024-01-16T02:13:26;9.70;;;4.45;;
20480;SDS011;10399;50.754;3.366;2024-01-16T02:15:54;12.77;;;4.10;;
20480;SDS011;10399;50.754;3.366;2024-01-16T02:18:21;7.70;;;3.70;;
20480;SDS011;10399;50.754;3.366;2024-01-16T02:20:48;6.93;;;3.50;;
20480;SDS011;10399;50.754;3.366;2024-01-16T02:23:15;10.63;;;4.00;;
20480;SDS011;10399;50.754;3.366;2024-01-16T02:25:51;14.48;;;3.63;;
20480;SDS011;10399;50.754;3.366;2024-01-16T02:28:18;10.05;;;3.15;;
20480;SDS011;10399;50.754;3.366;2024-01-16T02:30:45;9.63;;;3.45;;
20480;SDS011;10399;50.754;3.366;2024-01-16T02:33:12;9.00;;;3.53;;
20480;SDS011;10399;50.754;3.366;2024-01-16T02:35:40;8.68;;;3.60;;
20480;SDS011;10399;50.754;3.366;2024-01-16T02:38:07;11.83;;;3.77;;
20480;SDS011;10399;50.754;3.366;2024-01-16T02:40:34;9.13;;;3.47;;
20480;SDS011;10399;50.754;3.366;2024-01-16T02:43:01;11.07;;;4.03;;
20480;SDS011;10399;50.754;3.366;2024-01-16T02:45:29;12.90;;;3.65;;
20480;SDS011;10399;50.754;3.366;2024-01-16T02:47:56;12.30;;;3.58;;
20480;SDS011;10399;50.754;3.366;2024-01-16T02:50:23;12.95;;;3.40;;
20480;SDS011;10399;50.754;3.366;2024-01-16T02:52:51;9.93;;;3.50;;
20480;SDS011;10399;50.754;3.366;2024-01-16T02:55:18;11.95;;;4.00;;
20480;SDS011;10399;50.754;3.366;2024-01-16T02:57:45;12.15;;;3.35;;
20480;SDS011;10399;50.754;3.366;2024-01-16T03:00:12;10.00;;;3.20;;
20480;SDS011;10399;50.754;3.366;2024-01-16T03:02:40;13.60;;;3.70;;
20480;SDS011;10399;50.754;3.366;2024-01-16T03:05:07;10.95;;;3.47;;
20480;SDS011;10399;50.754;3.366;2024-01-16T03:07:34;11.02;;;3.50;;
20480;SDS011;10399;50.754;3.366;2024-01-16T03:10:01;6.90;;;3.22;;
20480;SDS011;10399;50.754;3.366;2024-01-16T03:12:28;8.18;;;2.95;;
20480;SDS011;10399;50.754;3.366;2024-01-16T03:14:55;10.77;;;3.45;;
20480;SDS011;10399;50.754;3.366;2024-01-16T03:17:22;12.20;;;4.00;;
20480;SDS011;10399;50.754;3.366;2024-01-16T03:19:50;8.55;;;3.25;;
20480;SDS011;10399;50.754;3.366;2024-01-16T03:22:17;9.10;;;3.67;;
20480;SDS011;10399;50.754;3.366;2024-01-16T03:24:44;8.88;;;3.83;;
20480;SDS011;10399;50.754;3.366;2024-01-16T03:27:12;9.63;;;3.80;;
20480;SDS011;10399;50.754;3.366;2024-01-16T03:29:39;8.30;;;3.20;;
20480;SDS011;10399;50.754;3.366;2024-01-16T03:32:09;13.90;;;3.72;;
20480;SDS011;10399;50.754;3.366;2024-01-16T03:34:36;10.55;;;3.78;;
20480;SDS011;10399;50.754;3.366;2024-01-16T03:37:03;8.73;;;3.95;;
20480;SDS011;10399;50.754;3.366;2024-01-16T03:39:30;13.55;;;4.05;;
20480;SDS011;10399;50.754;3.366;2024-01-16T03:41:57;12.30;;;3.90;;
20480;SDS011;10399;50.754;3.366;2024-01-16T03:44:24;7.35;;;4.00;;
20480;SDS011;10399;50.754;3.366;2024-01-16T03:46:51;9.50;;;3.45;;
20480;SDS011;10399;50.754;3.366;2024-01-16T03:49:18;10.15;;;3.45;;
20480;SDS011;10399;50.754;3.366;2024-01-16T03:51:45;12.35;;;3.35;;
20480;SDS011;10399;50.754;3.366;2024-01-16T03:54:12;7.60;;;3.08;;
20480;SDS011;10399;50.754;3.366;2024-01-16T03:56:39;10.13;;;3.30;;
20480;SDS011;10399;50.754;3.366;2024-01-16T03:59:06;12.85;;;3.95;;
20480;SDS011;10399;50.754;3.366;2024-01-16T04:01:34;11.20;;;3.57;;
20480;SDS011;10399;50.754;3.366;2024-01-16T04:04:03;10.88;;;3.53;;
20480;SDS011;10399;50.754;3.366;2024-01-16T04:06:34;11.55;;;2.83;;
20480;SDS011;10399;50.754;3.366;2024-01-16T04:09:01;10.10;;;3.58;;
20480;SDS011;10399;50.754;3.366;2024-01-16T04:11:29;11.70;;;3.22;;
20480;SDS011;10399;50.754;3.366;2024-01-16T04:13:56;8.45;;;3.42;;
20480;SDS011;10399;50.754;3.366;2024-01-16T04:16:23;15.13;;;3.67;;
20480;SDS011;10399;50.754;3.366;2024-01-16T04:18:50;7.28;;;3.30;;
20480;SDS011;10399;50.754;3.366;2024-01-16T04:21:17;11.27;;;3.38;;
20480;SDS011;10399;50.754;3.366;2024-01-16T04:23:46;11.48;;;3.55;;
20480;SDS011;10399;50.754;3.366;2024-01-16T04:26:13;8.95;;;3.10;;
20480;SDS011;10399;50.754;3.366;2024-01-16T04:28:41;7.18;;;3.13;;
20480;SDS011;10399;50.754;3.366;2024-01-16T04:31:09;6.80;;;3.35;;
20480;SDS011;10399;50.754;3.366;2024-01-16T04:33:38;4.65;;;2.95;;
20480;SDS011;10399;50.754;3.366;2024-01-16T04:36:06;8.30;;;3.50;;
20480;SDS011;10399;50.754;3.366;2024-01-16T04:38:33;12.98;;;3.50;;
20480;SDS011;10399;50.754;3.366;2024-01-16T04:41:01;8.75;;;4.00;;
20480;SDS011;10399;50.754;3.366;2024-01-16T04:43:29;15.95;;;3.97;;
20480;SDS011;10399;50.754;3.366;2024-01-16T04:45:56;12.70;;;4.18;;
20480;SDS011;10399;50.754;3.366;2024-01-16T04:48:26;13.17;;;4.40;;
20480;SDS011;10399;50.754;3.366;2024-01-16T04:50:54;11.55;;;4.10;;
20480;SDS011;10399;50.754;3.366;2024-01-16T04:53:21;9.93;;;3.45;;
20480;SDS011;10399;50.754;3.366;2024-01-16T04:55:48;11.15;;;3.78;;
20480;SDS011;10399;50.754;3.366;2024-01-16T04:58:15;13.38;;;3.75;;
20480;SDS011;10399;50.754;3.366;2024-01-16T05:00:42;16.50;;;4.43;;
20480;SDS011;10399;50.754;3.366;2024-01-16T05:03:09;19.45;;;5.00;;
20480;SDS011;10399;50.754;3.366;2024-01-16T05:05:36;22.77;;;5.28;;
20480;SDS011;10399;50.754;3.366;2024-01-16T05:08:03;31.63;;;7.82;;
20480;SDS011;10399;50.754;3.366;2024-01-16T05:10:30;37.35;;;10.43;;
20480;SDS011;10399;50.754;3.366;2024-01-16T05:12:57;43.08;;;11.73;;
20480;SDS011;10399;50.754;3.366;2024-01-16T05:15:24;41.92;;;10.57;;
20480;SDS011;10399;50.754;3.366;2024-01-16T05:17:51;61.90;;;12.73;;
20480;SDS011;10399;50.754;3.366;2024-01-16T05:20:20;120.05;;;25.48;;
20480;SDS011;10399;50.754;3.366;2024-01-16T05:22:47;112.53;;;26.30;;
20480;SDS011;10399;50.754;3.366;2024-01-16T05:25:14;85.82;;;22.45;;
20480;SDS011;10399;50.754;3.366;2024-01-16T05:27:44;71.07;;;21.33;;
20480;SDS011;10399;50.754;3.366;2024-01-16T05:30:11;64.28;;;19.52;;
20480;SDS011;10399;50.754;3.366;2024-01-16T05:32:38;19.27;;;7.10;;
20480;SDS011;10399;50.754;3.366;2024-01-16T05:35:07;8.70;;;4.47;;
20480;SDS011;10399;50.754;3.366;2024-01-16T05:37:36;10.95;;;4.22;;
20480;SDS011;10399;50.754;3.366;2024-01-16T05:40:03;13.38;;;4.53;;
20480;SDS011;10399;50.754;3.366;2024-01-16T05:42:32;13.52;;;4.88;;
20480;SDS011;10399;50.754;3.366;2024-01-16T05:44:59;13.25;;;5.28;;
20480;SDS011;10399;50.754;3.366;2024-01-16T05:47:26;12.88;;;4.60;;
20480;SDS011;10399;50.754;3.366;2024-01-16T05:49:54;12.85;;;4.07;;
20480;SDS011;10399;50.754;3.366;2024-01-16T05:52:22;13.95;;;4.43;;
20480;SDS011;10399;50.754;3.366;2024-01-16T05:54:52;10.60;;;4.30;;
20480;SDS011;10399;50.754;3.366;2024-01-16T05:57:19;10.40;;;4.15;;
20480;SDS011;10399;50.754;3.366;2024-01-16T05:59:46;11.90;;;4.47;;
20480;SDS011;10399;50.754;3.366;2024-01-16T06:02:13;9.20;;;4.20;;
20480;SDS011;10399;50.754;3.366;2024-01-16T06:04:40;11.93;;;4.38;;
20480;SDS011;10399;50.754;3.366;2024-01-16T06:07:08;10.27;;;4.50;;
20480;SDS011;10399;50.754;3.366;2024-01-16T06:09:38;12.85;;;4.80;;
20480;SDS011;10399;50.754;3.366;2024-01-16T06:12:08;16.45;;;6.00;;
20480;SDS011;10399;50.754;3.366;2024-01-16T06:14:35;11.95;;;5.03;;
20480;SDS011;10399;50.754;3.366;2024-01-16T06:17:02;12.18;;;5.90;;
20480;SDS011;10399;50.754;3.366;2024-01-16T06:19:29;12.70;;;5.63;;
20480;SDS011;10399;50.754;3.366;2024-01-16T06:21:56;17.73;;;5.73;;
20480;SDS011;10399;50.754;3.366;2024-01-16T06:24:30;16.73;;;6.10;;
20480;SDS011;10399;50.754;3.366;2024-01-16T06:27:07;12.65;;;5.53;;
20480;SDS011;10399;50.754;3.366;2024-01-16T06:29:34;14.57;;;5.40;;
20480;SDS011;10399;50.754;3.366;2024-01-16T06:32:01;11.43;;;4.93;;
20480;SDS011;10399;50.754;3.366;2024-01-16T06:34:29;10.97;;;4.37;;
20480;SDS011;10399;50.754;3.366;2024-01-16T06:36:56;17.95;;;4.75;;
20480;SDS011;10399;50.754;3.366;2024-01-16T06:39:23;13.70;;;4.43;;
20480;SDS011;10399;50.754;3.366;2024-01-16T06:41:50;14.43;;;5.10;;
20480;SDS011;10399;50.754;3.366;2024-01-16T06:44:18;13.33;;;6.10;;
20480;SDS011;10399;50.754;3.366;2024-01-16T06:46:46;14.48;;;4.55;;
20480;SDS011;10399;50.754;3.366;2024-01-16T06:49:13;15.07;;;4.88;;
20480;SDS011;10399;50.754;3.366;2024-01-16T06:51:40;13.90;;;4.43;;
20480;SDS011;10399;50.754;3.366;2024-01-16T06:54:10;13.07;;;4.68;;
20480;SDS011;10399;50.754;3.366;2024-01-16T06:56:37;11.77;;;4.75;;
20480;SDS011;10399;50.754;3.366;2024-01-16T06:59:04;15.90;;;6.07;;
20480;SDS011;10399;50.754;3.366;2024-01-16T07:01:35;14.15;;;6.15;;
20480;SDS011;10399;50.754;3.366;2024-01-16T07:04:02;17.38;;;6.25;;
20480;SDS011;10399;50.754;3.366;2024-01-16T07:06:30;14.13;;;6.25;;
20480;SDS011;10399;50.754;3.366;2024-01-16T07:08:57;12.95;;;5.43;;
20480;SDS011;10399;50.754;3.366;2024-01-16T07:11:24;14.45;;;6.57;;
20480;SDS011;10399;50.754;3.366;2024-01-16T07:13:51;15.25;;;7.18;;
20480;SDS011;10399;50.754;3.366;2024-01-16T07:16:18;13.70;;;6.40;;
20480;SDS011;10399;50.754;3.366;2024-01-16T07:18:45;11.05;;;5.35;;
20480;SDS011;10399;50.754;3.366;2024-01-16T07:21:20;11.30;;;6.15;;
20480;SDS011;10399;50.754;3.366;2024-01-16T07:23:48;18.05;;;6.57;;
20480;SDS011;10399;50.754;3.366;2024-01-16T07:26:15;16.70;;;6.68;;
20480;SDS011;10399;50.754;3.366;2024-01-16T07:28:48;11.75;;;5.15;;
20480;SDS011;10399;50.754;3.366;2024-01-16T07:31:16;11.60;;;5.78;;
20480;SDS011;10399;50.754;3.366;2024-01-16T07:33:46;16.48;;;5.57;;
20480;SDS011;10399;50.754;3.366;2024-01-16T07:36:16;18.75;;;5.72;;
20480;SDS011;10399;50.754;3.366;2024-01-16T07:38:44;9.27;;;5.57;;
20480;SDS011;10399;50.754;3.366;2024-01-16T07:41:11;12.98;;;4.82;;
20480;SDS011;10399;50.754;3.366;2024-01-16T07:43:38;11.55;;;5.05;;
20480;SDS011;10399;50.754;3.366;2024-01-16T07:46:06;11.65;;;4.75;;
20480;SDS011;10399;50.754;3.366;2024-01-16T07:48:33;14.70;;;5.05;;
20480;SDS011;10399;50.754;3.366;2024-01-16T07:51:01;11.77;;;4.97;;
20480;SDS011;10399;50.754;3.366;2024-01-16T07:53:28;10.77;;;5.20;;
20480;SDS011;10399;50.754;3.366;2024-01-16T07:55:55;12.68;;;5.78;;
20480;SDS011;10399;50.754;3.366;2024-01-16T07:58:23;12.45;;;6.00;;
20480;SDS011;10399;50.754;3.366;2024-01-16T08:00:55;11.25;;;5.32;;
20480;SDS011;10399;50.754;3.366;2024-01-16T08:03:27;12.00;;;5.22;;
20480;SDS011;10399;50.754;3.366;2024-01-16T08:06:03;13.45;;;4.88;;
20480;SDS011;10399;50.754;3.366;2024-01-16T08:08:33;8.80;;;4.90;;
20480;SDS011;10399;50.754;3.366;2024-01-16T08:11:00;20.48;;;5.80;;
20480;SDS011;10399;50.754;3.366;2024-01-16T08:13:29;14.68;;;5.70;;
20480;SDS011;10399;50.754;3.366;2024-01-16T08:15:56;12.60;;;6.15;;
20480;SDS011;10399;50.754;3.366;2024-01-16T08:18:27;17.90;;;6.90;;
20480;SDS011;10399;50.754;3.366;2024-01-16T08:20:54;15.05;;;6.65;;
20480;SDS011;10399;50.754;3.366;2024-01-16T08:23:25;12.18;;;5.35;;
20480;SDS011;10399;50.754;3.366;2024-01-16T08:25:52;12.32;;;5.35;;
20480;SDS011;10399;50.754;3.366;2024-01-16T08:28:27;17.60;;;5.75;;
20480;SDS011;10399;50.754;3.366;2024-01-16T08:30:54;14.18;;;5.03;;
20480;SDS011;10399;50.754;3.366;2024-01-16T08:33:21;16.77;;;6.93;;
20480;SDS011;10399;50.754;3.366;2024-01-16T08:36:03;11.48;;;5.47;;
20480;SDS011;10399;50.754;3.366;2024-01-16T08:38:33;18.50;;;7.25;;
20480;SDS011;10399;50.754;3.366;2024-01-16T08:41:00;18.88;;;6.60;;
20480;SDS011;10399;50.754;3.366;2024-01-16T08:43:27;22.25;;;9.30;;
20480;SDS011;10399;50.754;3.366;2024-01-16T08:45:54;18.05;;;7.63;;
20480;SDS011;10399;50.754;3.366;2024-01-16T08:48:26;18.33;;;7.10;;
20480;SDS011;10399;50.754;3.366;2024-01-16T08:50:55;14.93;;;6.47;;
20480;SDS011;10399;50.754;3.366;2024-01-16T08:53:25;14.90;;;6.53;;
20480;SDS011;10399;50.754;3.366;2024-01-16T08:55:55;13.20;;;5.95;;
20480;SDS011;10399;50.754;3.366;2024-01-16T08:58:22;15.57;;;6.18;;
20480;SDS011;10399;50.754;3.366;2024-01-16T09:00:49;19.75;;;6.55;;
20480;SDS011;10399;50.754;3.366;2024-01-16T09:03:16;21.27;;;7.68;;
20480;SDS011;10399;50.754;3.366;2024-01-16T09:05:45;19.20;;;7.93;;
20480;SDS011;10399;50.754;3.366;2024-01-16T09:08:13;16.10;;;7.05;;
20480;SDS011;10399;50.754;3.366;2024-01-16T09:10:49;18.20;;;6.70;;
20480;SDS011;10399;50.754;3.366;2024-01-16T09:13:17;18.17;;;6.95;;
20480;SDS011;10399;50.754;3.366;2024-01-16T09:15:44;16.23;;;6.55;;
20480;SDS011;10399;50.754;3.366;2024-01-16T09:18:13;15.90;;;6.30;;
20480;SDS011;10399;50.754;3.366;2024-01-16T09:20:41;13.27;;;5.78;;
20480;SDS011;10399;50.754;3.366;2024-01-16T09:23:10;14.73;;;5.35;;
20480;SDS011;10399;50.754;3.366;2024-01-16T09:25:37;9.95;;;4.53;;
20480;SDS011;10399;50.754;3.366;2024-01-16T09:28:04;10.98;;;4.85;;
20480;SDS011;10399;50.754;3.366;2024-01-16T09:30:33;11.50;;;4.60;;
20480;SDS011;10399;50.754;3.366;2024-01-16T09:33:00;12.02;;;5.45;;
20480;SDS011;10399;50.754;3.366;2024-01-16T09:35:30;14.15;;;5.15;;
20480;SDS011;10399;50.754;3.366;2024-01-16T09:37:58;10.27;;;5.15;;
20480;SDS011;10399;50.754;3.366;2024-01-16T09:40:26;23.63;;;5.55;;
20480;SDS011;10399;50.754;3.366;2024-01-16T09:42:53;15.73;;;5.55;;
20480;SDS011;10399;50.754;3.366;2024-01-16T09:45:20;13.82;;;5.47;;
20480;SDS011;10399;50.754;3.366;2024-01-16T09:47:50;16.05;;;6.13;;
20480;SDS011;10399;50.754;3.366;2024-01-16T09:50:19;14.05;;;5.50;;
20480;SDS011;10399;50.754;3.366;2024-01-16T09:52:48;10.80;;;5.50;;
20480;SDS011;10399;50.754;3.366;2024-01-16T09:55:15;15.48;;;5.65;;
20480;SDS011;10399;50.754;3.366;2024-01-16T09:57:43;12.48;;;5.07;;
20480;SDS011;10399;50.754;3.366;2024-01-16T10:00:22;14.13;;;5.37;;
20480;SDS011;10399;50.754;3.366;2024-01-16T10:02:52;13.77;;;4.97;;
20480;SDS011;10399;50.754;3.366;2024-01-16T10:05:25;11.85;;;5.40;;
20480;SDS011;10399;50.754;3.366;2024-01-16T10:07:52;12.02;;;5.45;;
20480;SDS011;10399;50.754;3.366;2024-01-16T10:10:21;14.75;;;5.50;;
20480;SDS011;10399;50.754;3.366;2024-01-16T10:13:04;15.73;;;4.88;;
20480;SDS011;10399;50.754;3.366;2024-01-16T10:15:33;12.52;;;5.20;;
20480;SDS011;10399;50.754;3.366;2024-01-16T10:18:03;15.80;;;5.85;;
20480;SDS011;10399;50.754;3.366;2024-01-16T10:20:34;14.43;;;5.85;;
20480;SDS011;10399;50.754;3.366;2024-01-16T10:23:02;15.25;;;6.30;;
20480;SDS011;10399;50.754;3.366;2024-01-16T10:25:32;18.92;;;6.20;;
20480;SDS011;10399;50.754;3.366;2024-01-16T10:28:04;16.08;;;6.38;;
20480;SDS011;10399;50.754;3.366;2024-01-16T10:30:34;15.88;;;7.10;;
20480;SDS011;10399;50.754;3.366;2024-01-16T10:33:17;15.40;;;6.28;;
20480;SDS011;10399;50.754;3.366;2024-01-16T10:35:46;15.32;;;6.30;;
20480;SDS011;10399;50.754;3.366;2024-01-16T10:38:19;13.68;;;5.65;;
20480;SDS011;10399;50.754;3.366;2024-01-16T10:40:48;17.80;;;6.18;;
20480;SDS011;10399;50.754;3.366;2024-01-16T10:43:32;20.23;;;6.47;;
20480;SDS011;10399;50.754;3.366;2024-01-16T10:46:20;17.23;;;6.05;;
20480;SDS011;10399;50.754;3.366;2024-01-16T10:48:59;17.80;;;6.90;;
20480;SDS011;10399;50.754;3.366;2024-01-16T10:51:31;17.73;;;6.68;;
20480;SDS011;10399;50.754;3.366;2024-01-16T10:54:08;15.68;;;6.22;;
20480;SDS011;10399;50.754;3.366;2024-01-16T10:56:44;19.98;;;7.03;;
20480;SDS011;10399;50.754;3.366;2024-01-16T10:59:18;13.13;;;6.05;;
20480;SDS011;10399;50.754;3.366;2024-01-16T11:01:53;14.85;;;5.82;;
20480;SDS011;10399;50.754;3.366;2024-01-16T11:04:22;9.43;;;4.93;;
20480;SDS011;10399;50.754;3.366;2024-01-16T11:06:51;12.95;;;5.30;;
20480;SDS011;10399;50.754;3.366;2024-01-16T11:09:20;13.25;;;5.25;;
20480;SDS011;10399;50.754;3.366;2024-01-16T11:11:49;9.63;;;5.03;;
20480;SDS011;10399;50.754;3.366;2024-01-16T11:14:18;15.48;;;5.40;;
20480;SDS011;10399;50.754;3.366;2024-01-16T11:16:50;12.98;;;5.32;;
20480;SDS011;10399;50.754;3.366;2024-01-16T11:19:20;12.75;;;4.78;;
20480;SDS011;10399;50.754;3.366;2024-01-16T11:22:08;14.60;;;4.90;;
20480;SDS011;10399;50.754;3.366;2024-01-16T11:24:36;10.00;;;4.78;;
20480;SDS011;10399;50.754;3.366;2024-01-16T11:27:04;13.85;;;4.82;;
20480;SDS011;10399;50.754;3.366;2024-01-16T11:31:58;11.30;;;5.00;;
20480;SDS011;10399;50.754;3.366;2024-01-16T11:37:16;12.18;;;4.68;;
20480;SDS011;10399;50.754;3.366;2024-01-16T11:42:50;12.57;;;4.22;;
20480;SDS011;10399;50.754;3.366;2024-01-16T11:46:06;14.82;;;4.93;;
20480;SDS011;10399;50.754;3.366;2024-01-16T11:48:15;12.05;;;4.70;;
20480;SDS011;10399;50.754;3.366;2024-01-16T11:50:47;10.38;;;4.78;;
20480;SDS011;10399;50.754;3.366;2024-01-16T12:01:59;10.98;;;5.05;;
20480;SDS011;10399;50.754;3.366;2024-01-16T12:04:31;11.13;;;4.63;;
20480;SDS011;10399;50.754;3.366;2024-01-16T12:06:58;12.73;;;4.20;;
20480;SDS011;10399;50.754;3.366;2024-01-16T12:09:27;7.97;;;3.42;;
20480;SDS011;10399;50.754;3.366;2024-01-16T12:12:01;10.20;;;3.13;;
20480;SDS011;10399;50.754;3.366;2024-01-16T12:14:29;9.30;;;2.88;;
20480;SDS011;10399;50.754;3.366;2024-01-16T12:17:12;6.70;;;2.95;;
20480;SDS011;10399;50.754;3.366;2024-01-16T12:19:40;7.97;;;2.90;;
20480;SDS011;10399;50.754;3.366;2024-01-16T12:22:10;9.50;;;2.90;;
20480;SDS011;10399;50.754;3.366;2024-01-16T12:24:40;5.75;;;2.65;;
20480;SDS011;10399;50.754;3.366;2024-01-16T12:27:08;11.20;;;2.72;;
20480;SDS011;10399;50.754;3.366;2024-01-16T12:29:35;8.82;;;2.78;;
20480;SDS011;10399;50.754;3.366;2024-01-16T12:32:06;6.68;;;2.53;;
20480;SDS011;10399;50.754;3.366;2024-01-16T12:34:47;4.53;;;1.85;;
20480;SDS011;10399;50.754;3.366;2024-01-16T12:37:15;8.65;;;2.35;;
20480;SDS011;10399;50.754;3.366;2024-01-16T12:39:43;5.20;;;1.90;;
20480;SDS011;10399;50.754;3.366;2024-01-16T12:42:10;4.63;;;2.10;;
20480;SDS011;10399;50.754;3.366;2024-01-16T12:44:38;7.53;;;2.45;;
20480;SDS011;10399;50.754;3.366;2024-01-16T12:47:06;5.95;;;2.13;;
20480;SDS011;10399;50.754;3.366;2024-01-16T12:49:40;5.68;;;2.05;;
20480;SDS011;10399;50.754;3.366;2024-01-16T12:52:22;4.32;;;2.65;;
20480;SDS011;10399;50.754;3.366;2024-01-16T12:54:59;4.68;;;2.00;;
20480;SDS011;10399;50.754;3.366;2024-01-16T12:57:33;4.20;;;2.03;;
20480;SDS011;10399;50.754;3.366;2024-01-16T13:00:00;5.55;;;2.17;;
20480;SDS011;10399;50.754;3.366;2024-01-16T13:02:31;8.55;;;2.28;;
20480;SDS011;10399;50.754;3.366;2024-01-16T13:05:00;5.65;;;2.05;;
20480;SDS011;10399;50.754;3.366;2024-01-16T13:07:30;6.05;;;2.10;;
20480;SDS011;10399;50.754;3.366;2024-01-16T13:10:06;3.88;;;1.85;;
20480;SDS011;10399;50.754;3.366;2024-01-16T13:12:35;6.95;;;2.20;;
20480;SDS011;10399;50.754;3.366;2024-01-16T13:15:03;6.30;;;2.03;;
20480;SDS011;10399;50.754;3.366;2024-01-16T13:17:34;5.00;;;2.10;;
20480;SDS011;10399;50.754;3.366;2024-01-16T13:20:02;5.00;;;1.98;;
20480;SDS011;10399;50.754;3.366;2024-01-16T13:22:33;4.75;;;1.67;;
20480;SDS011;10399;50.754;3.366;2024-01-16T13:25:11;2.65;;;1.75;;
20480;SDS011;10399;50.754;3.366;2024-01-16T13:27:38;4.82;;;2.03;;
20480;SDS011;10399;50.754;3.366;2024-01-16T13:30:05;2.63;;;1.50;;
20480;SDS011;10399;50.754;3.366;2024-01-16T13:32:33;4.47;;;1.80;;
20480;SDS011;10399;50.754;3.366;2024-01-16T13:35:04;9.35;;;1.67;;
20480;SDS011;10399;50.754;3.366;2024-01-16T13:37:35;4.80;;;2.00;;
20480;SDS011;10399;50.754;3.366;2024-01-16T13:40:07;5.35;;;1.90;;
20480;SDS011;10399;50.754;3.366;2024-01-16T13:42:42;3.30;;;2.00;;
20480;SDS011;10399;50.754;3.366;2024-01-16T13:45:09;4.05;;;2.08;;
20480;SDS011;10399;50.754;3.366;2024-01-16T13:47:38;4.43;;;2.08;;
20480;SDS011;10399;50.754;3.366;2024-01-16T13:50:07;3.88;;;1.92;;
20480;SDS011;10399;50.754;3.366;2024-01-16T13:52:35;7.03;;;2.50;;
20480;SDS011;10399;50.754;3.366;2024-01-16T13:55:02;6.40;;;1.90;;
20480;SDS011;10399;50.754;3.366;2024-01-16T13:57:32;3.40;;;1.85;;
20480;SDS011;10399;50.754;3.366;2024-01-16T14:00:02;5.45;;;1.65;;
20480;SDS011;10399;50.754;3.366;2024-01-16T14:02:31;4.40;;;1.80;;
20480;SDS011;10399;50.754;3.366;2024-01-16T14:04:58;4.60;;;1.92;;
20480;SDS011;10399;50.754;3.366;2024-01-16T14:07:25;4.30;;;1.90;;
20480;SDS011;10399;50.754;3.366;2024-01-16T14:09:52;6.15;;;1.90;;
20480;SDS011;10399;50.754;3.366;2024-01-16T14:12:19;5.65;;;2.20;;
20480;SDS011;10399;50.754;3.366;2024-01-16T14:14:46;6.00;;;2.00;;
20480;SDS011;10399;50.754;3.366;2024-01-16T14:17:14;9.38;;;2.20;;
20480;SDS011;10399;50.754;3.366;2024-01-16T14:19:41;9.10;;;2.00;;
20480;SDS011;10399;50.754;3.366;2024-01-16T14:22:09;6.07;;;2.05;;
20480;SDS011;10399;50.754;3.366;2024-01-16T14:24:36;5.15;;;2.30;;
20480;SDS011;10399;50.754;3.366;2024-01-16T14:27:04;5.32;;;2.40;;
20480;SDS011;10399;50.754;3.366;2024-01-16T14:29:31;7.13;;;1.95;;
20480;SDS011;10399;50.754;3.366;2024-01-16T14:32:01;4.88;;;2.78;;
20480;SDS011;10399;50.754;3.366;2024-01-16T14:34:28;8.60;;;2.15;;
20480;SDS011;10399;50.754;3.366;2024-01-16T14:36:55;11.30;;;2.28;;
20480;SDS011;10399;50.754;3.366;2024-01-16T14:39:22;3.15;;;1.90;;
20480;SDS011;10399;50.754;3.366;2024-01-16T14:41:52;5.22;;;2.28;;
20480;SDS011;10399;50.754;3.366;2024-01-16T14:44:20;6.68;;;2.75;;
20480;SDS011;10399;50.754;3.366;2024-01-16T14:46:46;4.13;;;2.35;;
20480;SDS011;10399;50.754;3.366;2024-01-16T14:49:18;6.38;;;2.13;;
20480;SDS011;10399;50.754;3.366;2024-01-16T14:51:45;5.53;;;2.47;;
20480;SDS011;10399;50.754;3.366;2024-01-16T14:54:13;4.93;;;2.65;;
20480;SDS011;10399;50.754;3.366;2024-01-16T14:56:41;6.60;;;2.80;;
20480;SDS011;10399;50.754;3.366;2024-01-16T14:59:08;7.65;;;2.78;;
20480;SDS011;10399;50.754;3.366;2024-01-16T15:01:40;7.10;;;2.60;;
20480;SDS011;10399;50.754;3.366;2024-01-16T15:04:07;3.97;;;2.63;;
20480;SDS011;10399;50.754;3.366;2024-01-16T15:06:35;6.32;;;2.50;;
20480;SDS011;10399;50.754;3.366;2024-01-16T15:09:02;8.43;;;2.38;;